ADDS METAR Data INFO
IDs: Format: Raw Decoded Include TAF

Data at: 1627 UTC 25 Apr 2018

KBPT 251553Z 26006KT 10SM CLR 25/15 A3007 RMK AO2 SLP183 T02500150
KBPT 251453Z 28005KT 10SM CLR 24/18 A3007 RMK AO2 SLP182 60000 T02440178 53009
KBPT 251353Z 29004KT 10SM CLR 21/18 A3007 RMK AO2 SLP181 P0000 T02110178
KBPT 251253Z 00000KT 10SM CLR 17/17 A3004 RMK AO2 SLP173 P0000 T01670167
KBPT 251153Z 00000KT 8SM MIFG FEW250 13/13 A3004 RMK AO2 SLP173 60000 T01330133 10178 20128 53001 $
KBPT 251059Z 00000KT 10SM CLR 13/13 A3004 RMK AO2 T01280128
KBPT 251053Z 00000KT 5SM BR CLR 15/14 A3004 RMK AO2 SLP173 T01500144
KBPT 251051Z 00000KT 5SM BR CLR 14/14 A3004 RMK AO2
KBPT 251036Z AUTO 00000KT 2 1/2SM BR CLR 15/15 A3004 RMK AO2 VIS 1 1/2V4 T01500150
KBPT 251029Z AUTO 29003KT 1 1/2SM BR CLR 15/15 A3004 RMK AO2 VIS 1/2V4 T01500150
KBPT 251017Z AUTO 28003KT 1/2SM R12/P6000FT FG CLR 14/14 A3004 RMK AO2 T01390139
KBPT 251007Z AUTO 28004KT 1/4SM R12/1600VP6000FT FG VV003 14/14 A3004 RMK AO2 T01390139
KBPT 250953Z AUTO 25003KT 1/4SM R12/1000V1600FT FG VV002 14/14 A3004 RMK AO2 SLP173 T01390139
KBPT 250915Z AUTO 00000KT 1/4SM R12/1200V2000FT FG VV003 14/14 A3004 RMK AO2 T01440144
KBPT 250900Z AUTO 00000KT 1/4SM R12/1400V3500FT FG VV003 14/14 A3004 RMK AO2 T01390139
KBPT 250853Z AUTO 00000KT 1/4SM R12/1200V1800FT FG VV003 14/14 A3004 RMK AO2 SLP172 60000 T01440144 56003
KBPT 250851Z AUTO 00000KT 1/4SM R12/1200V1800FT FG VV003 15/15 A3004 RMK AO2
KBPT 250833Z AUTO 00000KT 1/4SM R12/1400VP6000FT FG VV003 14/14 A3004 RMK AO2 T01440144
KBPT 250827Z AUTO 00000KT 1SM R12/2800VP6000FT BR VV003 14/14 A3004 RMK AO2 VIS 1/4V4 T01440144
KBPT 250824Z AUTO 00000KT 1 1/2SM BR FEW003 14/14 A3004 RMK AO2 VIS 3/4V4 T01440144
KBPT 250819Z AUTO 00000KT 1/2SM R12/1600VP6000FT FG VV003 14/14 A3004 RMK AO2 T01440144
KBPT 250812Z AUTO 00000KT 1/4SM R12/1600VP6000FT FG CLR 15/15 A3004 RMK AO2 T01500150
KBPT 250803Z AUTO 00000KT 1/2SM R12/1800VP6000FT FG CLR 15/15 A3004 RMK AO2 T01500150
KBPT 250753Z AUTO 00000KT 1/4SM R12/2600VP6000FT FG CLR 14/14 A3005 RMK AO2 SLP174 T01440144
KBPT 250726Z AUTO 00000KT 1/4SM R12/2400VP6000FT FG CLR 16/16 A3004 RMK AO2 T01610156
KBPT 250716Z AUTO 00000KT 3/4SM R12/P6000FT BR CLR 16/16 A3004 RMK AO2 T01560156
KBPT 250710Z AUTO 00000KT 1 1/2SM BR CLR 16/16 A3004 RMK AO2 T01560156
KBPT 250700Z AUTO 00000KT 3/4SM R12/P6000FT BR CLR 16/16 A3005 RMK AO2 T01560156
KBPT 250657Z AUTO 00000KT 1 1/2SM BR CLR 16/16 A3005 RMK AO2 T01610156
KBPT 250653Z AUTO 22003KT 4SM BR CLR 17/16 A3005 RMK AO2 RAB0559E09 SLP175 P0000 T01670161
KBPT 250553Z AUTO 23004KT 10SM CLR 18/17 A3006 RMK AO2 SLP180 60000 T01780172 10267 20161 402890111 51013
KBPT 250526Z AUTO 21005KT 9SM CLR 17/17 A3006 RMK AO2 T01720167
KBPT 250517Z AUTO 21004KT 2SM BR CLR 17/16 A3006 RMK AO2 T01670161
KBPT 250453Z AUTO 00000KT 4SM BR CLR 17/17 A3005 RMK AO2 RAB0354E02 SLP177 P0000 T01670167
KBPT 250353Z AUTO 23004KT 10SM CLR 18/17 A3004 RMK AO2 SLP171 T01830172
KBPT 250253Z 17003KT 10SM CLR 17/16 A3003 RMK AO2 SLP167 T01720156 53017
KBPT 250153Z 00000KT 10SM CLR 18/16 A3000 RMK AO2 SLP159 T01830156
KBPT 250053Z 01003KT 10SM CLR 23/13 A2998 RMK AO2 SLP150 T02280128
KBPT 242353Z 36005KT 10SM CLR 27/13 A2997 RMK AO2 SLP150 T02670128 10289 20261 55005
KBPT 242253Z 03006KT 10SM CLR 28/12 A2997 RMK AO2 SLP148 T02780117
KBPT 242153Z 36009KT 10SM CLR 28/12 A2997 RMK AO2 SLP149 T02830122
KBPT 242053Z VRB03KT 10SM CLR 28/13 A2999 RMK AO2 SLP155 T02780128 58023
KBPT 241953Z 29004KT 10SM CLR 28/13 A3002 RMK AO2 SLP164 T02780128
KBPT 241853Z 34009KT 10SM CLR 27/13 A3004 RMK AO2 SLP171 T02720128
KBPT 241753Z 33007KT 310V010 10SM CLR 27/13 A3006 RMK AO2 SLP178 60000 T02670128 10267 20111 58009
KBPT 241653Z 34008KT 290V360 10SM CLR 26/13 A3008 RMK AO2 SLP185 T02560128
KBPT 241553Z 00000KT 10SM CLR 23/14 A3009 RMK AO2 SLP190 T02330139
KBPT 241453Z VRB03KT 10SM CLR 21/14 A3009 RMK AO2 RAE02 SLP188 P0000 60000 T02110144 51013
KBPT 241353Z COR 25004KT 10SM CLR 18/14 A3008 RMK AO2 RAB19 SLP186 P0000 T01780144
KBPT 241253Z 00000KT 9SM CLR 14/14 A3007 RMK AO2 SLP180 T01440139
KBPT 241153Z 00000KT 8SM CLR 11/11 A3005 RMK AO2 SLP175 T01110111 10133 20111 53015
KBPT 241053Z 00000KT 9SM CLR 12/12 A3003 RMK AO2 SLP167 T01170117
KBPT 240953Z AUTO 00000KT 8SM CLR 12/12 A3001 RMK AO2 SLP162 T01170117
KBPT 240853Z AUTO 31003KT 10SM CLR 12/11 A3001 RMK AO2 SLP160 T01170111 56012
KBPT 240753Z AUTO 00000KT 5SM BR CLR 13/12 A3001 RMK AO2 SLP163 T01280122
KBPT 240653Z AUTO 00000KT 10SM CLR 13/12 A3003 RMK AO2 SLP168 T01280122
KBPT 240553Z AUTO 00000KT 10SM CLR 13/12 A3004 RMK AO2 SLP171 T01330122 10233 20133 402610094 51007
KBPT 240453Z AUTO 02003KT 10SM CLR 16/13 A3003 RMK AO2 SLP169 T01560128